createdAt,value
2019-02-12T00:00:59.757Z,1.43
2019-02-12T00:03:29.125Z,1.60
2019-02-12T00:05:58.481Z,1.50
2019-02-12T00:08:27.865Z,1.63
2019-02-12T00:10:57.389Z,1.47
2019-02-12T00:13:26.779Z,1.80
2019-02-12T00:15:56.251Z,1.60
2019-02-12T00:18:25.702Z,1.30
2019-02-12T00:20:55.139Z,1.50
2019-02-12T00:23:24.516Z,1.60
2019-02-12T00:25:54.008Z,1.50
2019-02-12T00:28:23.364Z,1.43
2019-02-12T00:30:52.923Z,1.47
2019-02-12T00:33:22.317Z,1.37
2019-02-12T00:35:51.700Z,1.63
2019-02-12T00:38:21.053Z,1.53
2019-02-12T00:40:50.435Z,1.53
2019-02-12T00:43:19.808Z,1.53
2019-02-12T00:45:49.237Z,1.87
2019-02-12T00:48:18.589Z,1.77
2019-02-12T00:50:48.081Z,1.73
2019-02-12T00:53:17.486Z,1.80
2019-02-12T00:55:46.873Z,1.80
2019-02-12T00:58:16.313Z,1.90
2019-02-12T01:00:45.739Z,1.60
2019-02-12T01:03:15.067Z,1.60
2019-02-12T01:05:44.383Z,1.40
2019-02-12T01:08:13.831Z,1.50
2019-02-12T01:10:43.244Z,1.60
2019-02-12T01:13:12.626Z,1.87
2019-02-12T01:15:42.016Z,2.40
2019-02-12T01:18:11.346Z,3.63
2019-02-12T01:20:40.688Z,3.57
2019-02-12T01:23:10.114Z,2.97
2019-02-12T01:25:39.435Z,2.67
2019-02-12T01:28:08.874Z,2.83
2019-02-12T01:30:38.236Z,2.57
2019-02-12T01:33:07.693Z,2.33
2019-02-12T01:35:37.044Z,2.40
2019-02-12T01:38:06.390Z,2.50
2019-02-12T01:40:35.889Z,2.70
2019-02-12T01:43:05.253Z,3.13
2019-02-12T01:45:34.648Z,3.40
2019-02-12T01:48:03.996Z,4.60
2019-02-12T01:50:33.338Z,3.80
2019-02-12T01:53:02.807Z,3.07
2019-02-12T01:55:32.197Z,2.70
2019-02-12T01:58:01.693Z,2.40
2019-02-12T02:00:31.129Z,1.93
2019-02-12T02:03:00.594Z,1.90
2019-02-12T02:05:30.068Z,1.80
2019-02-12T02:07:59.471Z,1.70
2019-02-12T02:10:28.811Z,2.00
2019-02-12T02:12:58.127Z,1.90
2019-02-12T02:15:27.418Z,1.90
2019-02-12T02:17:56.772Z,2.00
2019-02-12T02:20:26.279Z,1.80
2019-02-12T02:22:55.583Z,2.20
2019-02-12T02:25:24.996Z,1.93
2019-02-12T02:27:54.430Z,1.93
2019-02-12T02:30:23.886Z,1.50
2019-02-12T02:32:53.288Z,1.60
2019-02-12T02:35:22.648Z,1.93
2019-02-12T02:37:52.012Z,2.07
2019-02-12T02:40:21.419Z,1.87
2019-02-12T02:42:50.819Z,2.00
2019-02-12T02:45:20.138Z,1.57
2019-02-12T02:47:49.519Z,1.97
2019-02-12T02:50:19.046Z,1.60
2019-02-12T02:52:48.451Z,1.80
2019-02-12T02:55:17.841Z,1.70
2019-02-12T02:57:47.203Z,1.90
2019-02-12T03:00:16.599Z,2.10
2019-02-12T03:02:46.038Z,2.20
2019-02-12T03:05:15.473Z,2.10
2019-02-12T03:07:44.825Z,2.00
2019-02-12T03:10:14.120Z,1.83
2019-02-12T03:12:43.486Z,2.10
2019-02-12T03:15:12.831Z,1.90
2019-02-12T03:17:42.271Z,2.00
2019-02-12T03:20:12.233Z,2.07
2019-02-12T03:22:41.708Z,1.77
2019-02-12T03:25:11.208Z,2.17
2019-02-12T03:27:40.657Z,2.40
2019-02-12T03:30:10.760Z,2.20
2019-02-12T03:32:40.119Z,2.10
2019-02-12T03:35:09.889Z,1.83
2019-02-12T03:37:39.240Z,1.60
2019-02-12T03:40:09.860Z,1.90
2019-02-12T03:42:39.192Z,1.67
2019-02-12T03:45:09.660Z,1.57
2019-02-12T03:47:39.087Z,1.73
2019-02-12T03:50:09.163Z,1.90
2019-02-12T03:52:38.546Z,2.00
2019-02-12T03:55:09.326Z,1.73
2019-02-12T03:57:39.274Z,1.90
2019-02-12T04:00:11.215Z,1.90
2019-02-12T04:02:59.531Z,2.20
2019-02-12T04:05:28.828Z,2.20
2019-02-12T04:07:58.207Z,2.53
2019-02-12T04:10:27.594Z,2.30
2019-02-12T04:12:57.009Z,3.70
2019-02-12T04:15:26.500Z,4.43
2019-02-12T04:17:55.925Z,4.63
2019-02-12T04:20:25.414Z,5.27
2019-02-12T04:22:54.818Z,4.63
2019-02-12T04:25:24.248Z,4.40
2019-02-12T04:27:55.348Z,4.40
2019-02-12T04:30:24.897Z,3.87
2019-02-12T04:32:54.326Z,2.93
2019-02-12T04:35:23.793Z,2.80
2019-02-12T04:37:53.218Z,2.17
2019-02-12T04:40:22.540Z,2.13
2019-02-12T04:42:52.036Z,1.87
2019-02-12T04:45:21.454Z,2.20
2019-02-12T04:47:50.854Z,2.13
2019-02-12T04:50:20.190Z,2.43
2019-02-12T04:52:49.599Z,2.30
2019-02-12T04:55:19.012Z,2.20
2019-02-12T04:57:48.415Z,2.10
2019-02-12T05:00:17.864Z,2.03
2019-02-12T05:02:47.193Z,2.20
2019-02-12T05:05:16.561Z,2.20
2019-02-12T05:07:45.994Z,2.07
2019-02-12T05:10:16.535Z,1.93
2019-02-12T05:12:46.145Z,1.70
2019-02-12T05:15:17.776Z,1.47
2019-02-12T05:17:47.118Z,2.10
2019-02-12T05:20:16.521Z,2.30
2019-02-12T05:22:45.963Z,1.70
2019-02-12T05:25:15.320Z,2.40
2019-02-12T05:27:44.689Z,2.07
2019-02-12T05:30:14.228Z,2.10
2019-02-12T05:32:43.595Z,2.00
2019-02-12T05:35:12.998Z,1.67
2019-02-12T05:37:42.403Z,2.00
2019-02-12T05:40:11.923Z,2.00
2019-02-12T05:42:41.326Z,1.87
2019-02-12T05:45:11.494Z,2.23
2019-02-12T05:47:40.884Z,2.00
2019-02-12T05:50:11.982Z,1.90
2019-02-12T05:52:41.354Z,1.90
2019-02-12T05:55:11.211Z,2.10
2019-02-12T05:57:40.659Z,1.70
2019-02-12T06:00:12.349Z,1.50
2019-02-12T06:02:41.739Z,1.60
2019-02-12T06:05:12.847Z,1.63
2019-02-12T06:07:42.224Z,2.37
2019-02-12T06:10:12.076Z,1.80
2019-02-12T06:12:41.449Z,1.73
2019-02-12T06:15:10.856Z,1.60
2019-02-12T06:17:40.217Z,1.90
2019-02-12T06:20:09.550Z,2.50
2019-02-12T06:22:39.380Z,2.70
2019-02-12T06:25:08.756Z,2.43
2019-02-12T06:27:38.131Z,2.40
2019-02-12T06:30:07.858Z,2.30
2019-02-12T06:32:37.195Z,2.50
2019-02-12T06:35:07.056Z,3.07
2019-02-12T06:37:36.494Z,3.83
2019-02-12T06:40:06.613Z,3.37
2019-02-12T06:42:36.034Z,3.60
2019-02-12T06:45:05.752Z,2.97
2019-02-12T06:47:35.131Z,2.20
2019-02-12T06:50:04.651Z,2.70
2019-02-12T06:52:34.005Z,2.57
2019-02-12T06:55:03.403Z,2.20
2019-02-12T06:57:32.731Z,2.77
2019-02-12T07:00:02.268Z,2.80
2019-02-12T07:03:09.560Z,2.50
2019-02-12T07:05:40.095Z,2.27
2019-02-12T07:08:53.104Z,2.27
2019-02-12T07:11:47.557Z,2.30
2019-02-12T07:14:56.196Z,2.40
2019-02-12T07:18:01.171Z,2.40
2019-02-12T07:21:09.403Z,2.30
2019-02-12T07:24:13.630Z,2.47
2019-02-12T07:27:14.202Z,2.07
2019-02-12T07:30:23.576Z,2.50
2019-02-12T07:33:13.369Z,2.03
2019-02-12T07:36:30.935Z,1.93
2019-02-12T07:39:43.384Z,1.97
2019-02-12T07:42:35.103Z,2.17
2019-02-12T07:45:44.488Z,2.37
2019-02-12T07:48:57.502Z,1.97
2019-02-12T07:52:10.996Z,2.37
2019-02-12T07:55:25.480Z,2.60
2019-02-12T07:58:35.423Z,2.40
2019-02-12T08:01:54.836Z,2.00
2019-02-12T08:05:19.260Z,1.80
2019-02-12T08:08:28.691Z,2.10
2019-02-12T08:12:00.111Z,2.10
2019-02-12T08:15:00.075Z,2.10
2019-02-12T08:18:04.094Z,2.07
2019-02-12T08:21:38.990Z,2.27
2019-02-12T08:25:01.329Z,2.20
2019-02-12T08:28:06.235Z,2.20
2019-02-12T08:31:09.749Z,2.27
2019-02-12T08:34:23.653Z,2.87
2019-02-12T08:37:09.159Z,4.20
2019-02-12T08:40:34.708Z,3.67
2019-02-12T08:43:54.331Z,3.13
2019-02-12T08:47:01.738Z,3.20
2019-02-12T08:50:14.852Z,2.50
2019-02-12T08:53:09.021Z,2.40
2019-02-12T08:56:43.536Z,2.20
2019-02-12T08:59:37.536Z,2.83
2019-02-12T09:03:08.953Z,2.60
2019-02-12T09:06:17.465Z,2.50
2019-02-12T09:09:11.934Z,2.60
2019-02-12T09:12:22.344Z,2.37
2019-02-12T09:15:25.941Z,2.40
2019-02-12T09:18:33.341Z,2.33
2019-02-12T09:21:51.678Z,2.87
2019-02-12T09:24:52.302Z,2.10
2019-02-12T09:27:30.016Z,2.20
2019-02-12T09:30:27.652Z,2.60
2019-02-12T09:33:37.404Z,3.23
2019-02-12T09:36:56.878Z,2.50
2019-02-12T09:40:22.587Z,2.83
2019-02-12T09:43:38.810Z,2.40
2019-02-12T09:46:49.044Z,2.50
2019-02-12T09:49:58.512Z,2.43
2019-02-12T09:53:02.185Z,2.50
2019-02-12T09:55:59.667Z,2.23
2019-02-12T09:59:09.761Z,2.40
2019-02-12T10:02:02.763Z,2.73
2019-02-12T10:04:57.067Z,2.47
2019-02-12T10:07:57.261Z,2.70
2019-02-12T10:10:48.857Z,2.40
2019-02-12T10:13:55.718Z,3.63
2019-02-12T10:17:06.984Z,3.10
2019-02-12T10:20:06.466Z,2.47
2019-02-12T10:23:13.285Z,2.50
2019-02-12T10:25:51.215Z,2.60
2019-02-12T10:29:08.026Z,2.50
2019-02-12T10:31:42.655Z,2.83
2019-02-12T10:34:12.380Z,3.33
2019-02-12T10:36:41.802Z,3.20
2019-02-12T10:39:17.179Z,3.17
2019-02-12T10:41:46.629Z,2.50
2019-02-12T10:44:16.042Z,2.40
2019-02-12T10:46:45.609Z,2.70
2019-02-12T10:49:14.986Z,2.70
2019-02-12T10:51:44.350Z,3.00
2019-02-12T10:54:14.045Z,2.80
2019-02-12T10:56:43.389Z,3.70
2019-02-12T10:59:25.564Z,2.80
2019-02-12T11:01:54.984Z,2.40
2019-02-12T11:04:24.467Z,2.60
2019-02-12T11:06:53.780Z,2.83
2019-02-12T11:09:23.192Z,2.40
2019-02-12T11:11:52.624Z,2.80
2019-02-12T11:14:22.031Z,3.13
2019-02-12T11:16:51.464Z,3.00
2019-02-12T11:19:20.896Z,3.07
2019-02-12T11:21:51.190Z,2.90
2019-02-12T11:24:20.815Z,2.47
2019-02-12T11:26:50.180Z,2.60
2019-02-12T11:29:19.558Z,3.20
2019-02-12T11:31:49.257Z,3.00
2019-02-12T11:34:18.735Z,2.67
2019-02-12T11:36:48.168Z,3.33
2019-02-12T11:39:17.544Z,3.30
2019-02-12T11:41:46.887Z,2.73
2019-02-12T11:44:16.294Z,2.70
2019-02-12T11:46:45.709Z,2.40
2019-02-12T11:49:15.063Z,3.00
2019-02-12T11:51:44.497Z,2.93
2019-02-12T11:54:14.143Z,3.10
2019-02-12T11:56:43.442Z,2.90
2019-02-12T11:59:12.771Z,2.73
2019-02-12T12:01:42.251Z,2.70
2019-02-12T12:04:11.669Z,3.40
2019-02-12T12:06:41.153Z,2.97
2019-02-12T12:09:10.682Z,3.03
2019-02-12T12:11:40.150Z,3.73
2019-02-12T12:14:09.614Z,3.10
2019-02-12T12:16:39.013Z,2.83
2019-02-12T12:19:08.400Z,2.97
2019-02-12T12:21:37.857Z,2.40
2019-02-12T12:24:07.247Z,2.87
2019-02-12T12:26:36.571Z,3.00
2019-02-12T12:29:05.903Z,3.30
2019-02-12T12:31:35.258Z,3.30
2019-02-12T12:34:04.726Z,3.10
2019-02-12T12:36:34.084Z,3.13
2019-02-12T12:39:04.973Z,4.10
2019-02-12T12:41:36.579Z,3.30
2019-02-12T12:44:05.972Z,3.43
2019-02-12T12:46:35.328Z,3.20
2019-02-12T12:49:11.863Z,3.07
2019-02-12T12:51:41.267Z,3.53
2019-02-12T12:54:10.592Z,4.37
2019-02-12T12:56:40.023Z,4.03
2019-02-12T12:59:09.651Z,4.10
2019-02-12T13:01:39.026Z,4.37
2019-02-12T13:04:08.431Z,5.10
2019-02-12T13:06:37.874Z,4.77
2019-02-12T13:09:07.712Z,3.43
2019-02-12T13:11:37.193Z,3.77
2019-02-12T13:14:06.645Z,4.23
2019-02-12T13:16:36.058Z,3.90
2019-02-12T13:19:05.463Z,3.93
2019-02-12T13:21:34.913Z,4.30
2019-02-12T13:24:04.359Z,3.83
2019-02-12T13:26:33.815Z,4.10
2019-02-12T13:29:03.226Z,3.70
2019-02-12T13:31:32.623Z,4.30
2019-02-12T13:34:01.994Z,4.37
2019-02-12T13:36:31.359Z,4.13
2019-02-12T13:39:00.726Z,3.73
2019-02-12T13:41:30.195Z,4.30
2019-02-12T13:43:59.649Z,4.00
2019-02-12T13:46:28.981Z,4.20
2019-02-12T13:48:58.384Z,4.30
2019-02-12T13:51:27.826Z,4.30
2019-02-12T13:53:57.175Z,5.33
2019-02-12T13:56:26.699Z,4.70
2019-02-12T13:58:56.099Z,5.40
2019-02-12T14:01:25.558Z,4.53
2019-02-12T14:03:54.923Z,4.73
2019-02-12T14:06:24.283Z,5.10
2019-02-12T14:08:53.699Z,5.33
2019-02-12T14:11:23.073Z,4.57
2019-02-12T14:13:52.768Z,5.00
2019-02-12T14:16:22.148Z,4.77
2019-02-12T14:18:51.640Z,4.57
2019-02-12T14:21:20.996Z,3.70
2019-02-12T14:23:50.511Z,4.33
2019-02-12T14:26:19.963Z,4.63
2019-02-12T14:28:49.362Z,4.43
2019-02-12T14:31:18.778Z,4.40
2019-02-12T14:33:48.188Z,4.27
2019-02-12T14:36:17.567Z,4.63
2019-02-12T14:38:46.940Z,5.00
2019-02-12T14:41:16.424Z,5.23
2019-02-12T14:43:45.825Z,3.53
2019-02-12T14:46:15.234Z,4.10
2019-02-12T14:48:44.680Z,4.20
2019-02-12T14:51:14.031Z,4.40
2019-02-12T14:53:43.388Z,4.70
2019-02-12T14:56:13.672Z,4.30
2019-02-12T14:58:43.074Z,4.67
2019-02-12T15:01:12.816Z,4.77
2019-02-12T15:03:42.142Z,4.97
2019-02-12T15:06:11.532Z,5.13
2019-02-12T15:08:40.942Z,5.60
2019-02-12T15:11:11.894Z,5.73
2019-02-12T15:13:41.343Z,6.50
2019-02-12T15:16:10.783Z,4.73
2019-02-12T15:18:40.323Z,5.10
2019-02-12T15:21:09.660Z,5.80
2019-02-12T15:23:39.036Z,5.77
2019-02-12T15:26:08.501Z,5.33
2019-02-12T15:28:37.855Z,5.73
2019-02-12T15:31:07.224Z,6.93
2019-02-12T15:33:36.591Z,5.00
2019-02-12T15:36:05.983Z,6.10
2019-02-12T15:38:35.335Z,6.60
2019-02-12T15:41:04.751Z,5.23
2019-02-12T15:43:34.173Z,5.50
2019-02-12T15:46:03.636Z,5.37
2019-02-12T15:48:33.068Z,5.17
2019-02-12T15:51:02.491Z,7.08
2019-02-12T15:53:31.911Z,6.80
2019-02-12T15:56:01.268Z,6.30
2019-02-12T15:58:30.965Z,6.43
2019-02-12T16:01:01.885Z,6.43
2019-02-12T16:03:31.331Z,7.33
2019-02-12T16:06:00.770Z,7.83
2019-02-12T16:08:32.000Z,6.53
2019-02-12T16:11:01.458Z,5.80
2019-02-12T16:13:32.628Z,5.87
2019-02-12T16:16:01.938Z,5.67
2019-02-12T16:18:31.364Z,6.63
2019-02-12T16:21:00.761Z,6.07
2019-02-12T16:23:30.162Z,5.80
2019-02-12T16:25:59.795Z,6.50
2019-02-12T16:28:29.187Z,7.10
2019-02-12T16:30:58.576Z,6.80
2019-02-12T16:33:28.091Z,5.57
2019-02-12T16:35:57.509Z,5.20
2019-02-12T16:38:26.923Z,5.87
2019-02-12T16:40:56.278Z,5.80
2019-02-12T16:43:25.650Z,6.55
2019-02-12T16:45:59.906Z,5.78
2019-02-12T16:48:29.238Z,5.92
2019-02-12T16:50:58.676Z,4.80
2019-02-12T16:53:28.055Z,5.30
2019-02-12T16:55:57.465Z,6.07
2019-02-12T16:58:26.862Z,5.30
2019-02-12T17:00:56.237Z,5.00
2019-02-12T17:03:25.609Z,5.67
2019-02-12T17:05:55.131Z,5.00
2019-02-12T17:08:24.534Z,5.60
2019-02-12T17:10:53.974Z,5.03
2019-02-12T17:13:23.472Z,4.83
2019-02-12T17:15:52.853Z,5.95
2019-02-12T17:18:22.237Z,5.78
2019-02-12T17:20:51.726Z,5.00
2019-02-12T17:23:21.151Z,5.65
2019-02-12T17:25:50.584Z,6.58
2019-02-12T17:28:20.078Z,5.12
2019-02-12T17:30:49.482Z,4.90
2019-02-12T17:33:18.851Z,5.90
2019-02-12T17:35:48.305Z,6.55
2019-02-12T17:38:17.693Z,6.78
2019-02-12T17:40:47.271Z,7.05
2019-02-12T17:43:16.715Z,5.40
2019-02-12T17:45:46.114Z,5.22
2019-02-12T17:48:15.527Z,4.80
2019-02-12T17:50:45.206Z,4.72
2019-02-12T17:53:14.621Z,5.42
2019-02-12T17:55:44.037Z,6.00
2019-02-12T17:58:13.479Z,5.15
2019-02-12T18:00:45.101Z,5.37
2019-02-12T18:03:14.486Z,5.62
2019-02-12T18:05:43.927Z,6.75
2019-02-12T18:08:13.370Z,7.75
2019-02-12T18:10:42.823Z,6.95
2019-02-12T18:13:12.274Z,6.58
2019-02-12T18:15:41.837Z,5.83
2019-02-12T18:18:11.369Z,7.35
2019-02-12T18:20:40.872Z,7.25
2019-02-12T18:23:10.305Z,7.10
2019-02-12T18:25:41.796Z,6.58
2019-02-12T18:28:11.297Z,6.50
2019-02-12T18:30:40.681Z,6.53
2019-02-12T18:33:10.145Z,7.13
2019-02-12T18:35:39.591Z,6.67
2019-02-12T18:38:08.995Z,6.75
2019-02-12T18:40:38.417Z,6.17
2019-02-12T18:43:07.826Z,6.53
2019-02-12T18:45:37.300Z,6.47
2019-02-12T18:48:06.823Z,6.22
2019-02-12T18:50:36.289Z,7.20
2019-02-12T18:53:05.804Z,6.35
2019-02-12T18:55:37.277Z,7.03
2019-02-12T18:58:07.085Z,6.10
2019-02-12T19:00:36.612Z,6.12
2019-02-12T19:03:06.182Z,6.15
2019-02-12T19:05:38.147Z,6.92
2019-02-12T19:08:07.653Z,7.03
2019-02-12T19:10:37.109Z,6.17
2019-02-12T19:13:06.572Z,6.58
2019-02-12T19:15:36.038Z,6.58
2019-02-12T19:18:08.970Z,6.40
2019-02-12T19:20:38.392Z,5.67
2019-02-12T19:23:08.301Z,5.80
2019-02-12T19:25:37.642Z,5.90
2019-02-12T19:28:07.056Z,5.40
2019-02-12T19:30:36.537Z,5.90
2019-02-12T19:33:05.903Z,5.92
2019-02-12T19:35:35.384Z,5.35
2019-02-12T19:38:05.805Z,6.03
2019-02-12T19:40:35.159Z,5.92
2019-02-12T19:43:04.574Z,5.40
2019-02-12T19:45:34.513Z,5.50
2019-02-12T19:48:04.335Z,5.60
2019-02-12T19:50:33.993Z,5.55
2019-02-12T19:53:03.547Z,6.12
2019-02-12T19:55:33.496Z,5.85
2019-02-12T19:58:02.892Z,6.03
2019-02-12T20:00:32.343Z,5.70
2019-02-12T20:03:01.933Z,6.40
2019-02-12T20:05:31.767Z,5.83
2019-02-12T20:08:01.114Z,5.53
2019-02-12T20:10:30.528Z,5.90
2019-02-12T20:13:01.012Z,5.35
2019-02-12T20:15:30.478Z,5.92
2019-02-12T20:18:01.063Z,5.58
2019-02-12T20:20:31.778Z,6.35
2019-02-12T20:23:01.139Z,5.40
2019-02-12T20:25:32.291Z,5.12
2019-02-12T20:28:01.686Z,6.10
2019-02-12T20:30:31.081Z,5.87
2019-02-12T20:33:00.528Z,6.17
2019-02-12T20:35:36.234Z,6.10
2019-02-12T20:38:01.472Z,6.00
2019-02-12T20:40:31.205Z,6.37
2019-02-12T20:43:04.738Z,6.35
2019-02-12T20:45:34.141Z,6.33
2019-02-12T20:48:03.621Z,6.70
2019-02-12T20:50:33.011Z,5.95
2019-02-12T20:53:02.539Z,6.00
2019-02-12T20:55:31.934Z,5.92
2019-02-12T20:58:01.341Z,6.60
2019-02-12T21:00:30.768Z,5.90
2019-02-12T21:03:00.224Z,6.12
2019-02-12T21:05:29.672Z,6.53
2019-02-12T21:07:59.103Z,6.35
2019-02-12T21:10:28.517Z,5.53
2019-02-12T21:12:57.899Z,6.08
2019-02-12T21:15:27.348Z,6.42
2019-02-12T21:17:56.864Z,5.92
2019-02-12T21:20:26.317Z,5.70
2019-02-12T21:22:55.695Z,6.35
2019-02-12T21:25:25.148Z,5.20
2019-02-12T21:27:54.531Z,6.05
2019-02-12T21:30:23.930Z,6.25
2019-02-12T21:32:53.299Z,6.33
2019-02-12T21:35:22.633Z,6.28
2019-02-12T21:37:51.947Z,5.62
2019-02-12T21:40:22.381Z,5.65
2019-02-12T21:42:51.977Z,6.37
2019-02-12T21:45:21.309Z,5.92
2019-02-12T21:47:50.776Z,5.15
2019-02-12T21:50:20.134Z,4.83
2019-02-12T21:52:49.559Z,4.60
2019-02-12T21:55:20.290Z,5.30
2019-02-12T21:57:49.678Z,5.28
2019-02-12T22:00:19.052Z,5.42
2019-02-12T22:02:48.398Z,4.95
2019-02-12T22:05:17.739Z,5.30
2019-02-12T22:07:47.099Z,5.00
2019-02-12T22:10:17.797Z,4.70
2019-02-12T22:12:47.233Z,4.92
2019-02-12T22:15:16.617Z,4.70
2019-02-12T22:17:46.122Z,4.62
2019-02-12T22:20:16.464Z,4.47
2019-02-12T22:22:45.869Z,4.05
2019-02-12T22:25:15.315Z,4.60
2019-02-12T22:27:44.827Z,4.58
2019-02-12T22:30:16.334Z,4.10
2019-02-12T22:32:45.633Z,5.15
2019-02-12T22:35:15.002Z,4.67
2019-02-12T22:37:44.442Z,4.90
2019-02-12T22:40:14.385Z,4.40
2019-02-12T22:42:43.799Z,4.33
2019-02-12T22:45:15.259Z,4.58
2019-02-12T22:47:44.616Z,4.70
2019-02-12T22:50:14.123Z,4.67
2019-02-12T22:52:43.626Z,4.08
2019-02-12T22:55:13.066Z,4.90
2019-02-12T22:57:48.788Z,4.50
2019-02-12T23:00:25.875Z,4.08
2019-02-12T23:02:55.404Z,4.33
2019-02-12T23:05:24.813Z,4.47
2019-02-12T23:07:54.231Z,4.22
2019-02-12T23:10:23.648Z,4.87
2019-02-12T23:12:53.053Z,4.67
2019-02-12T23:15:22.496Z,5.00
2019-02-12T23:17:51.851Z,4.75
2019-02-12T23:20:21.209Z,4.45
2019-02-12T23:22:50.647Z,4.33
2019-02-12T23:25:20.060Z,4.97
2019-02-12T23:27:56.996Z,4.72
2019-02-12T23:30:20.787Z,4.62
2019-02-12T23:32:50.267Z,5.08
2019-02-12T23:35:19.624Z,4.40
2019-02-12T23:37:49.066Z,4.20
2019-02-12T23:40:18.497Z,4.60
2019-02-12T23:42:47.967Z,4.80
2019-02-12T23:45:17.444Z,4.95
2019-02-12T23:47:46.836Z,4.55
2019-02-12T23:50:16.244Z,4.55
2019-02-12T23:52:45.702Z,5.33
2019-02-12T23:55:15.146Z,5.03
2019-02-12T23:57:44.607Z,4.75
